createdAt,value
2023-09-09T00:02:29.844Z,22.70
2023-09-09T00:07:33.941Z,22.70
2023-09-09T00:12:37.304Z,22.60
2023-09-09T00:17:42.448Z,22.60
2023-09-09T00:22:45.972Z,22.50
2023-09-09T00:27:49.276Z,22.50
2023-09-09T00:32:54.064Z,22.40
2023-09-09T00:37:57.679Z,22.40
2023-09-09T00:43:01.335Z,22.30
2023-09-09T00:48:06.573Z,22.30
2023-09-09T00:53:09.964Z,22.20
2023-09-09T00:58:13.328Z,22.20
2023-09-09T01:03:18.274Z,22.10
2023-09-09T01:08:26.603Z,22.10
2023-09-09T01:13:30.884Z,22.00
2023-09-09T01:18:36.277Z,22.00
2023-09-09T01:23:41.346Z,21.90
2023-09-09T01:28:45.104Z,21.90
2023-09-09T01:33:48.458Z,21.80
2023-09-09T01:38:53.165Z,21.80
2023-09-09T01:43:56.859Z,21.70
2023-09-09T01:49:01.799Z,21.60
2023-09-09T01:54:06.657Z,21.60
2023-09-09T01:59:10.125Z,21.50
2023-09-09T02:04:13.607Z,21.50
2023-09-09T02:09:18.651Z,21.40
2023-09-09T02:14:21.968Z,21.40
2023-09-09T02:19:25.945Z,21.30
2023-09-09T02:24:30.656Z,21.20
2023-09-09T02:29:33.985Z,21.20
2023-09-09T02:34:37.254Z,21.10
2023-09-09T02:39:43.050Z,21.10
2023-09-09T02:44:46.763Z,21.00
2023-09-09T02:49:51.349Z,21.00
2023-09-09T02:54:56.982Z,21.00
2023-09-09T03:00:00.304Z,20.90
2023-09-09T03:05:05.262Z,20.90
2023-09-09T03:10:10.367Z,20.80
2023-09-09T03:15:13.758Z,20.80
2023-09-09T03:20:17.167Z,20.70
2023-09-09T03:25:21.901Z,20.70
2023-09-09T03:30:25.234Z,20.70
2023-09-09T03:35:28.652Z,20.60
2023-09-09T03:40:33.310Z,20.60
2023-09-09T03:45:37.014Z,20.60
2023-09-09T03:50:40.356Z,20.50
2023-09-09T03:55:45.060Z,20.40
2023-09-09T04:00:51.842Z,20.40
2023-09-09T04:05:56.422Z,20.30
2023-09-09T04:11:01.126Z,20.30
2023-09-09T04:16:04.587Z,20.20
2023-09-09T04:21:08.907Z,20.10
2023-09-09T04:26:13.542Z,20.10
2023-09-09T04:31:16.805Z,20.10
2023-09-09T04:36:20.118Z,20.00
2023-09-09T04:41:24.844Z,20.00
2023-09-09T04:46:28.210Z,19.90
2023-09-09T04:51:32.473Z,19.90
2023-09-09T04:56:37.088Z,19.90
2023-09-09T05:01:40.469Z,19.90
2023-09-09T05:06:43.790Z,19.80
2023-09-09T05:11:48.540Z,19.80
2023-09-09T05:16:51.890Z,19.80
2023-09-09T05:21:55.258Z,19.80
2023-09-09T05:26:59.876Z,19.80
2023-09-09T05:32:03.602Z,19.80
2023-09-09T05:37:06.971Z,19.80
2023-09-09T05:42:11.642Z,19.80
2023-09-09T05:47:15.153Z,19.90
2023-09-09T05:52:18.459Z,19.90
2023-09-09T05:57:25.854Z,19.90
2023-09-09T06:02:29.232Z,19.90
2023-09-09T06:07:32.557Z,19.90
2023-09-09T06:12:37.321Z,20.00
2023-09-09T06:17:42.767Z,20.00
2023-09-09T06:22:46.127Z,20.00
2023-09-09T06:27:50.808Z,20.00
2023-09-09T06:32:54.131Z,20.00
2023-09-09T06:37:57.704Z,20.10
2023-09-09T06:43:02.610Z,20.10
2023-09-09T06:48:06.710Z,20.20
2023-09-09T06:53:10.063Z,20.30
2023-09-09T06:58:15.447Z,20.30
2023-09-09T07:03:19.111Z,20.40
2023-09-09T07:08:23.017Z,20.40
2023-09-09T07:13:27.696Z,20.50
2023-09-09T07:18:31.082Z,20.50
2023-09-09T07:23:34.428Z,20.60
2023-09-09T07:28:39.113Z,20.70
2023-09-09T07:33:42.476Z,20.70
2023-09-09T07:38:45.968Z,20.80
2023-09-09T07:43:50.874Z,20.90
2023-09-09T07:48:54.613Z,20.90
2023-09-09T07:53:57.932Z,21.00
2023-09-09T07:59:02.626Z,21.10
2023-09-09T08:04:06.194Z,21.10
2023-09-09T08:09:09.763Z,21.20
2023-09-09T08:14:14.625Z,21.30
2023-09-09T08:19:18.306Z,21.40
2023-09-09T08:24:22.820Z,21.40
2023-09-09T08:29:27.632Z,21.50
2023-09-09T08:34:30.973Z,21.60
2023-09-09T08:39:34.518Z,21.70
2023-09-09T08:44:47.102Z,21.70
2023-09-09T08:49:54.642Z,21.80
2023-09-09T08:54:58.219Z,21.90
2023-09-09T09:00:04.937Z,22.00
2023-09-09T09:05:09.667Z,22.00
2023-09-09T09:10:13.092Z,22.10
2023-09-09T09:15:17.998Z,22.30
2023-09-09T09:20:27.710Z,22.30
2023-09-09T09:25:36.505Z,22.40
2023-09-09T09:30:41.184Z,22.50
2023-09-09T09:35:44.594Z,22.60
2023-09-09T09:40:48.272Z,22.70
2023-09-09T09:45:52.972Z,22.80
2023-09-09T09:50:56.260Z,22.80
2023-09-09T09:55:59.906Z,22.90
2023-09-09T10:01:06.733Z,23.00
2023-09-09T10:06:12.318Z,23.10
2023-09-09T10:11:16.491Z,23.20
2023-09-09T10:16:22.435Z,23.30
2023-09-09T10:21:41.298Z,23.40
2023-09-09T10:26:46.529Z,23.50
2023-09-09T10:31:52.127Z,23.60
2023-09-09T10:37:01.959Z,23.70
2023-09-09T10:42:06.980Z,23.80
2023-09-09T10:47:11.827Z,23.90
2023-09-09T10:52:34.261Z,24.00
2023-09-09T10:57:37.743Z,24.10
2023-09-09T11:02:49.016Z,24.20
2023-09-09T11:07:52.566Z,24.30
2023-09-09T11:13:00.296Z,24.50
2023-09-09T11:18:05.676Z,24.60
2023-09-09T11:23:10.069Z,24.70
2023-09-09T11:28:14.096Z,24.80
2023-09-09T11:33:24.834Z,25.00
2023-09-09T11:38:28.166Z,25.10
2023-09-09T11:43:31.521Z,25.20
2023-09-09T11:48:36.329Z,25.30
2023-09-09T11:53:40.196Z,25.40
2023-09-09T11:58:44.238Z,25.60
2023-09-09T12:03:50.059Z,25.70
2023-09-09T12:08:53.502Z,25.90
2023-09-09T12:13:57.112Z,26.00
2023-09-09T12:19:01.888Z,26.10
2023-09-09T12:24:05.667Z,26.30
2023-09-09T12:29:10.638Z,26.40
2023-09-09T12:34:18.906Z,26.50
2023-09-09T12:39:24.883Z,26.70
2023-09-09T12:44:28.420Z,26.80
2023-09-09T12:49:33.396Z,26.90
2023-09-09T12:54:36.724Z,27.10
2023-09-09T12:59:40.155Z,27.20
2023-09-09T13:04:44.909Z,27.40
2023-09-09T13:09:48.226Z,27.50
2023-09-09T13:14:51.540Z,27.70
2023-09-09T13:19:56.303Z,27.80
2023-09-09T13:25:00.846Z,28.00
2023-09-09T13:30:04.911Z,28.10
2023-09-09T13:35:10.679Z,28.30
2023-09-09T13:40:14.170Z,28.40
2023-09-09T13:45:18.000Z,28.60
2023-09-09T13:50:22.752Z,28.70
2023-09-09T13:55:26.681Z,28.90
2023-09-09T14:00:30.050Z,29.00
2023-09-09T14:05:34.701Z,29.20
2023-09-09T14:10:38.037Z,29.30
2023-09-09T14:15:41.425Z,29.40
2023-09-09T14:20:46.130Z,29.60
2023-09-09T14:25:49.586Z,29.70
2023-09-09T14:30:52.962Z,29.90
2023-09-09T14:35:57.733Z,30.00
2023-09-09T14:41:01.473Z,30.10
2023-09-09T14:46:04.907Z,30.20
2023-09-09T14:51:09.626Z,30.40
2023-09-09T14:56:12.941Z,30.50
2023-09-09T15:01:16.242Z,30.60
2023-09-09T15:06:22.762Z,30.70
2023-09-09T15:11:26.293Z,30.80
2023-09-09T15:16:44.809Z,30.90
2023-09-09T15:21:49.667Z,30.90
2023-09-09T15:26:53.000Z,31.00
2023-09-09T15:31:57.214Z,31.00
2023-09-09T15:37:01.964Z,31.00
2023-09-09T15:42:05.818Z,31.00
2023-09-09T15:47:09.179Z,31.00
2023-09-09T15:52:13.892Z,31.00
2023-09-09T15:57:17.813Z,31.00
2023-09-09T16:02:21.286Z,30.90
2023-09-09T16:07:36.963Z,30.90
2023-09-09T16:12:40.452Z,30.80
2023-09-09T16:17:44.318Z,30.80
2023-09-09T16:22:49.019Z,30.70
2023-09-09T16:27:52.361Z,30.60
2023-09-09T16:32:55.668Z,30.60
2023-09-09T16:38:01.514Z,30.60
2023-09-09T16:43:05.036Z,30.50
2023-09-09T16:48:11.924Z,30.50
2023-09-09T16:53:19.426Z,30.40
2023-09-09T16:58:25.118Z,30.30
2023-09-09T17:03:30.641Z,30.30
2023-09-09T17:08:35.398Z,30.20
2023-09-09T17:13:38.907Z,30.10
2023-09-09T17:18:42.458Z,30.00
2023-09-09T17:23:48.381Z,30.00
2023-09-09T17:28:51.863Z,29.90
2023-09-09T17:33:55.609Z,29.80
2023-09-09T17:39:09.063Z,29.70
2023-09-09T17:44:13.018Z,29.50
2023-09-09T17:49:19.468Z,29.50
2023-09-09T17:54:27.161Z,29.30
2023-09-09T17:59:30.949Z,29.20
2023-09-09T18:04:34.308Z,29.10
2023-09-09T18:09:39.603Z,29.00
2023-09-09T18:14:44.368Z,28.90
2023-09-09T18:19:47.712Z,28.80
2023-09-09T18:24:52.423Z,28.70
2023-09-09T18:29:55.711Z,28.60
2023-09-09T18:35:00.029Z,28.50
2023-09-09T18:40:05.622Z,28.40
2023-09-09T18:45:09.478Z,28.30
2023-09-09T18:50:12.806Z,28.20
2023-09-09T18:55:17.526Z,28.10
2023-09-09T19:00:21.389Z,28.10
2023-09-09T19:05:24.946Z,28.10
2023-09-09T19:10:29.888Z,28.10
2023-09-09T19:15:33.234Z,28.00
2023-09-09T19:20:36.667Z,28.00
2023-09-09T19:25:41.447Z,28.00
2023-09-09T19:30:44.970Z,28.00
2023-09-09T19:35:48.277Z,28.00
2023-09-09T19:40:52.918Z,28.00
2023-09-09T19:45:56.341Z,28.00
2023-09-09T19:50:59.826Z,28.00
2023-09-09T19:56:04.667Z,27.90
2023-09-09T20:01:08.149Z,27.90
2023-09-09T20:06:11.509Z,27.80
2023-09-09T20:11:16.171Z,27.70
2023-09-09T20:16:19.490Z,27.60
2023-09-09T20:21:22.790Z,27.60
2023-09-09T20:26:27.483Z,27.40
2023-09-09T20:31:30.848Z,27.30
2023-09-09T20:36:35.426Z,27.20
2023-09-09T20:41:40.180Z,27.10
2023-09-09T20:46:43.629Z,26.90
2023-09-09T20:51:46.978Z,26.80
2023-09-09T20:56:51.630Z,26.60
2023-09-09T21:01:55.284Z,26.50
2023-09-09T21:06:58.615Z,26.40
2023-09-09T21:12:03.480Z,26.30
2023-09-09T21:17:06.790Z,26.30
2023-09-09T21:22:10.129Z,26.20
2023-09-09T21:27:15.166Z,26.10
2023-09-09T21:32:18.724Z,26.00
2023-09-09T21:37:22.477Z,25.90
2023-09-09T21:42:27.097Z,25.80
2023-09-09T21:47:30.589Z,25.70
2023-09-09T21:52:33.978Z,25.60
2023-09-09T21:57:39.016Z,25.50
2023-09-09T22:02:42.595Z,25.40
2023-09-09T22:07:46.376Z,25.40
2023-09-09T22:12:51.102Z,25.30
2023-09-09T22:17:54.726Z,25.20
2023-09-09T22:22:58.125Z,25.10
2023-09-09T22:28:02.912Z,25.00
2023-09-09T22:33:06.550Z,24.90
2023-09-09T22:38:09.972Z,24.80
2023-09-09T22:43:14.757Z,24.80
2023-09-09T22:48:18.117Z,24.70
2023-09-09T22:53:21.438Z,24.50
2023-09-09T22:58:27.973Z,24.40
2023-09-09T23:03:31.997Z,24.40
2023-09-09T23:08:35.539Z,24.30
2023-09-09T23:13:40.592Z,24.20
2023-09-09T23:18:44.946Z,24.10
2023-09-09T23:23:48.447Z,24.00
2023-09-09T23:28:53.132Z,23.90
2023-09-09T23:33:56.449Z,23.90
2023-09-09T23:39:06.057Z,23.80
2023-09-09T23:44:10.783Z,23.70
2023-09-09T23:49:14.110Z,23.70
2023-09-09T23:54:17.390Z,23.60
2023-09-09T23:59:22.439Z,23.50
